sensor_id;sensor_type;location;lat;lon;timestamp;temperature;humidity
32366;DHT22;18837;46.832;16.838;2023-05-02T00:01:43;16.20;79.60
32366;DHT22;18837;46.832;16.838;2023-05-02T00:04:09;16.10;79.60
32366;DHT22;18837;46.832;16.838;2023-05-02T00:06:35;16.20;79.60
32366;DHT22;18837;46.832;16.838;2023-05-02T00:09:02;16.10;79.40
32366;DHT22;18837;46.832;16.838;2023-05-02T00:11:34;16.10;79.70
32366;DHT22;18837;46.832;16.838;2023-05-02T00:14:09;16.10;79.90
32366;DHT22;18837;46.832;16.838;2023-05-02T00:16:35;16.10;79.90
32366;DHT22;18837;46.832;16.838;2023-05-02T00:19:01;16.10;79.80
32366;DHT22;18837;46.832;16.838;2023-05-02T00:21:27;16.00;79.80
32366;DHT22;18837;46.832;16.838;2023-05-02T00:23:54;16.10;79.80
32366;DHT22;18837;46.832;16.838;2023-05-02T00:26:22;16.00;79.80
32366;DHT22;18837;46.832;16.838;2023-05-02T00:28:48;16.00;80.10
32366;DHT22;18837;46.832;16.838;2023-05-02T00:31:14;16.00;80.00
32366;DHT22;18837;46.832;16.838;2023-05-02T00:33:40;16.00;80.10
32366;DHT22;18837;46.832;16.838;2023-05-02T00:36:16;16.00;80.30
32366;DHT22;18837;46.832;16.838;2023-05-02T00:38:42;16.00;80.20
32366;DHT22;18837;46.832;16.838;2023-05-02T00:41:08;16.00;80.10
32366;DHT22;18837;46.832;16.838;2023-05-02T00:43:33;16.00;80.10
32366;DHT22;18837;46.832;16.838;2023-05-02T00:46:04;15.90;80.20
32366;DHT22;18837;46.832;16.838;2023-05-02T00:48:40;15.90;80.10
32366;DHT22;18837;46.832;16.838;2023-05-02T00:51:06;15.90;80.20
32366;DHT22;18837;46.832;16.838;2023-05-02T00:53:36;15.90;80.30
32366;DHT22;18837;46.832;16.838;2023-05-02T00:56:02;15.90;80.20
32366;DHT22;18837;46.832;16.838;2023-05-02T00:58:28;15.90;80.30
32366;DHT22;18837;46.832;16.838;2023-05-02T01:09:15;15.80;79.50
32366;DHT22;18837;46.832;16.838;2023-05-02T01:14:17;15.90;80.50
32366;DHT22;18837;46.832;16.838;2023-05-02T01:16:46;15.90;80.50
32366;DHT22;18837;46.832;16.838;2023-05-02T01:19:21;15.90;80.70
32366;DHT22;18837;46.832;16.838;2023-05-02T01:21:53;15.80;80.50
32366;DHT22;18837;46.832;16.838;2023-05-02T01:24:37;15.80;80.90
32366;DHT22;18837;46.832;16.838;2023-05-02T01:27:20;15.80;80.80
32366;DHT22;18837;46.832;16.838;2023-05-02T01:29:49;15.80;79.80
32366;DHT22;18837;46.832;16.838;2023-05-02T01:32:16;15.80;80.60
32366;DHT22;18837;46.832;16.838;2023-05-02T01:34:46;15.80;81.00
32366;DHT22;18837;46.832;16.838;2023-05-02T01:37:14;15.80;81.00
32366;DHT22;18837;46.832;16.838;2023-05-02T01:39:43;15.80;80.70
32366;DHT22;18837;46.832;16.838;2023-05-02T01:42:10;15.80;80.60
32366;DHT22;18837;46.832;16.838;2023-05-02T01:44:37;15.80;80.90
32366;DHT22;18837;46.832;16.838;2023-05-02T01:47:06;15.70;81.00
32366;DHT22;18837;46.832;16.838;2023-05-02T01:49:34;15.80;80.90
32366;DHT22;18837;46.832;16.838;2023-05-02T01:52:07;15.70;81.00
32366;DHT22;18837;46.832;16.838;2023-05-02T01:54:45;15.70;81.00
32366;DHT22;18837;46.832;16.838;2023-05-02T01:57:34;15.70;80.90
32366;DHT22;18837;46.832;16.838;2023-05-02T02:00:15;15.70;80.10
32366;DHT22;18837;46.832;16.838;2023-05-02T02:02:42;15.70;81.00
32366;DHT22;18837;46.832;16.838;2023-05-02T02:05:10;15.70;81.10
32366;DHT22;18837;46.832;16.838;2023-05-02T02:07:37;15.70;80.90
32366;DHT22;18837;46.832;16.838;2023-05-02T02:10:03;15.70;80.70
32366;DHT22;18837;46.832;16.838;2023-05-02T02:15:29;15.70;80.10
32366;DHT22;18837;46.832;16.838;2023-05-02T02:18:22;15.70;79.80
32366;DHT22;18837;46.832;16.838;2023-05-02T02:20:52;15.60;81.00
32366;DHT22;18837;46.832;16.838;2023-05-02T02:23:20;15.70;81.10
32366;DHT22;18837;46.832;16.838;2023-05-02T02:25:49;15.60;81.10
32366;DHT22;18837;46.832;16.838;2023-05-02T02:28:15;15.60;80.90
32366;DHT22;18837;46.832;16.838;2023-05-02T02:31:01;15.70;81.10
32366;DHT22;18837;46.832;16.838;2023-05-02T02:33:42;15.70;80.40
32366;DHT22;18837;46.832;16.838;2023-05-02T02:38:56;15.70;80.40
32366;DHT22;18837;46.832;16.838;2023-05-02T02:41:37;15.60;81.20
32366;DHT22;18837;46.832;16.838;2023-05-02T02:47:00;15.60;80.30
32366;DHT22;18837;46.832;16.838;2023-05-02T02:53:12;15.60;80.50
32366;DHT22;18837;46.832;16.838;2023-05-02T02:55:47;15.60;81.30
32366;DHT22;18837;46.832;16.838;2023-05-02T03:01:03;15.60;80.40
32366;DHT22;18837;46.832;16.838;2023-05-02T03:03:30;15.60;81.20
32366;DHT22;18837;46.832;16.838;2023-05-02T03:06:20;15.60;81.40
32366;DHT22;18837;46.832;16.838;2023-05-02T03:08:58;15.50;80.40
32366;DHT22;18837;46.832;16.838;2023-05-02T03:11:23;15.60;81.40
32366;DHT22;18837;46.832;16.838;2023-05-02T03:13:49;15.60;81.30
32366;DHT22;18837;46.832;16.838;2023-05-02T03:16:38;15.60;81.30
32366;DHT22;18837;46.832;16.838;2023-05-02T03:19:04;15.50;80.40
32366;DHT22;18837;46.832;16.838;2023-05-02T03:21:32;15.50;81.30
32366;DHT22;18837;46.832;16.838;2023-05-02T03:24:06;15.50;81.40
32366;DHT22;18837;46.832;16.838;2023-05-02T03:26:31;15.50;81.40
32366;DHT22;18837;46.832;16.838;2023-05-02T03:28:57;15.50;81.40
32366;DHT22;18837;46.832;16.838;2023-05-02T03:31:23;15.50;81.20
32366;DHT22;18837;46.832;16.838;2023-05-02T03:33:48;15.50;81.50
32366;DHT22;18837;46.832;16.838;2023-05-02T03:36:14;15.50;81.50
32366;DHT22;18837;46.832;16.838;2023-05-02T03:38:41;15.50;81.60
32366;DHT22;18837;46.832;16.838;2023-05-02T03:41:08;15.50;81.40
32366;DHT22;18837;46.832;16.838;2023-05-02T03:43:45;15.50;81.40
32366;DHT22;18837;46.832;16.838;2023-05-02T03:46:11;15.40;81.30
32366;DHT22;18837;46.832;16.838;2023-05-02T03:48:37;15.50;81.30
32366;DHT22;18837;46.832;16.838;2023-05-02T03:51:05;15.40;81.60
32366;DHT22;18837;46.832;16.838;2023-05-02T03:53:32;15.40;81.50
32366;DHT22;18837;46.832;16.838;2023-05-02T03:55:58;15.40;81.40
32366;DHT22;18837;46.832;16.838;2023-05-02T03:58:29;15.40;81.50
32366;DHT22;18837;46.832;16.838;2023-05-02T04:00:55;15.40;81.60
32366;DHT22;18837;46.832;16.838;2023-05-02T04:03:21;15.40;81.70
32366;DHT22;18837;46.832;16.838;2023-05-02T04:05:47;15.30;81.50
32366;DHT22;18837;46.832;16.838;2023-05-02T04:08:13;15.30;81.60
32366;DHT22;18837;46.832;16.838;2023-05-02T04:10:39;15.30;81.80
32366;DHT22;18837;46.832;16.838;2023-05-02T04:13:17;15.40;81.90
32366;DHT22;18837;46.832;16.838;2023-05-02T04:15:45;15.30;81.40
32366;DHT22;18837;46.832;16.838;2023-05-02T04:18:17;15.30;81.70
32366;DHT22;18837;46.832;16.838;2023-05-02T04:20:43;15.40;82.00
32366;DHT22;18837;46.832;16.838;2023-05-02T04:23:09;15.30;81.70
32366;DHT22;18837;46.832;16.838;2023-05-02T04:25:35;15.30;81.90
32366;DHT22;18837;46.832;16.838;2023-05-02T04:28:01;15.40;82.00
32366;DHT22;18837;46.832;16.838;2023-05-02T04:30:27;15.30;81.90
32366;DHT22;18837;46.832;16.838;2023-05-02T04:32:57;15.30;81.70
32366;DHT22;18837;46.832;16.838;2023-05-02T04:35:23;15.40;81.80
32366;DHT22;18837;46.832;16.838;2023-05-02T04:37:49;15.30;81.70
32366;DHT22;18837;46.832;16.838;2023-05-02T04:40:15;15.30;81.90
32366;DHT22;18837;46.832;16.838;2023-05-02T04:42:40;15.30;81.50
32366;DHT22;18837;46.832;16.838;2023-05-02T04:45:06;15.30;81.70
32366;DHT22;18837;46.832;16.838;2023-05-02T04:47:54;15.30;81.50
32366;DHT22;18837;46.832;16.838;2023-05-02T04:50:29;15.40;81.00
32366;DHT22;18837;46.832;16.838;2023-05-02T04:53:03;15.40;82.00
32366;DHT22;18837;46.832;16.838;2023-05-02T04:55:28;15.40;81.70
32366;DHT22;18837;46.832;16.838;2023-05-02T04:57:54;15.40;81.70
32366;DHT22;18837;46.832;16.838;2023-05-02T05:00:20;15.30;81.70
32366;DHT22;18837;46.832;16.838;2023-05-02T05:02:46;15.30;81.50
32366;DHT22;18837;46.832;16.838;2023-05-02T05:05:12;15.30;81.70
32366;DHT22;18837;46.832;16.838;2023-05-02T05:07:38;15.30;81.30
32366;DHT22;18837;46.832;16.838;2023-05-02T05:10:04;15.40;81.70
32366;DHT22;18837;46.832;16.838;2023-05-02T05:12:30;15.30;81.50
32366;DHT22;18837;46.832;16.838;2023-05-02T05:14:56;15.30;81.60
32366;DHT22;18837;46.832;16.838;2023-05-02T05:17:21;15.40;81.50
32366;DHT22;18837;46.832;16.838;2023-05-02T05:19:47;15.30;81.70
32366;DHT22;18837;46.832;16.838;2023-05-02T05:22:13;15.30;81.80
32366;DHT22;18837;46.832;16.838;2023-05-02T05:24:59;15.30;81.70
32366;DHT22;18837;46.832;16.838;2023-05-02T05:27:24;15.30;81.70
32366;DHT22;18837;46.832;16.838;2023-05-02T05:29:50;15.40;81.60
32366;DHT22;18837;46.832;16.838;2023-05-02T05:32:16;15.30;81.70
32366;DHT22;18837;46.832;16.838;2023-05-02T05:34:42;15.40;81.70
32366;DHT22;18837;46.832;16.838;2023-05-02T05:37:07;15.40;82.20
32366;DHT22;18837;46.832;16.838;2023-05-02T05:39:55;15.30;81.70
32366;DHT22;18837;46.832;16.838;2023-05-02T05:42:33;15.30;81.10
32366;DHT22;18837;46.832;16.838;2023-05-02T05:44:59;15.30;81.90
32366;DHT22;18837;46.832;16.838;2023-05-02T05:47:25;15.40;81.90
32366;DHT22;18837;46.832;16.838;2023-05-02T05:49:54;15.40;81.80
32366;DHT22;18837;46.832;16.838;2023-05-02T05:52:20;15.40;81.80
32366;DHT22;18837;46.832;16.838;2023-05-02T05:54:46;15.40;81.80
32366;DHT22;18837;46.832;16.838;2023-05-02T05:57:18;15.40;81.80
32366;DHT22;18837;46.832;16.838;2023-05-02T05:59:44;15.40;81.30
32366;DHT22;18837;46.832;16.838;2023-05-02T06:02:10;15.40;81.60
32366;DHT22;18837;46.832;16.838;2023-05-02T06:04:36;15.40;81.80
32366;DHT22;18837;46.832;16.838;2023-05-02T06:07:01;15.40;81.60
32366;DHT22;18837;46.832;16.838;2023-05-02T06:09:27;15.40;81.70
32366;DHT22;18837;46.832;16.838;2023-05-02T06:11:53;15.40;81.50
32366;DHT22;18837;46.832;16.838;2023-05-02T06:14:30;15.50;81.50
32366;DHT22;18837;46.832;16.838;2023-05-02T06:17:08;15.50;81.60
32366;DHT22;18837;46.832;16.838;2023-05-02T06:19:34;15.50;81.70
32366;DHT22;18837;46.832;16.838;2023-05-02T06:22:00;15.50;81.70
32366;DHT22;18837;46.832;16.838;2023-05-02T06:24:26;15.50;81.50
32366;DHT22;18837;46.832;16.838;2023-05-02T06:26:51;15.50;81.60
32366;DHT22;18837;46.832;16.838;2023-05-02T06:29:17;15.50;81.80
32366;DHT22;18837;46.832;16.838;2023-05-02T06:31:55;15.50;81.60
32366;DHT22;18837;46.832;16.838;2023-05-02T06:34:21;15.50;81.70
32366;DHT22;18837;46.832;16.838;2023-05-02T06:36:47;15.60;82.50
32366;DHT22;18837;46.832;16.838;2023-05-02T06:39:13;15.60;81.40
32366;DHT22;18837;46.832;16.838;2023-05-02T06:41:39;15.60;81.00
32366;DHT22;18837;46.832;16.838;2023-05-02T06:44:04;15.60;81.50
32366;DHT22;18837;46.832;16.838;2023-05-02T06:46:30;15.60;81.50
32366;DHT22;18837;46.832;16.838;2023-05-02T06:49:15;15.60;81.40
32366;DHT22;18837;46.832;16.838;2023-05-02T06:51:53;15.60;81.50
32366;DHT22;18837;46.832;16.838;2023-05-02T06:54:19;15.70;81.40
32366;DHT22;18837;46.832;16.838;2023-05-02T06:56:46;15.70;80.80
32366;DHT22;18837;46.832;16.838;2023-05-02T06:59:12;15.70;81.10
32366;DHT22;18837;46.832;16.838;2023-05-02T07:01:37;15.70;81.20
32366;DHT22;18837;46.832;16.838;2023-05-02T07:04:04;15.70;80.00
32366;DHT22;18837;46.832;16.838;2023-05-02T07:06:31;15.70;80.60
32366;DHT22;18837;46.832;16.838;2023-05-02T07:08:56;15.70;81.30
32366;DHT22;18837;46.832;16.838;2023-05-02T07:11:22;15.70;81.20
32366;DHT22;18837;46.832;16.838;2023-05-02T07:13:48;15.80;81.20
32366;DHT22;18837;46.832;16.838;2023-05-02T07:16:14;15.80;81.00
32366;DHT22;18837;46.832;16.838;2023-05-02T07:18:41;15.80;81.00
32366;DHT22;18837;46.832;16.838;2023-05-02T07:21:07;15.80;80.90
32366;DHT22;18837;46.832;16.838;2023-05-02T07:23:33;15.80;80.90
32366;DHT22;18837;46.832;16.838;2023-05-02T07:25:59;15.80;80.50
32366;DHT22;18837;46.832;16.838;2023-05-02T07:28:25;15.80;80.80
32366;DHT22;18837;46.832;16.838;2023-05-02T07:30:51;15.80;80.70
32366;DHT22;18837;46.832;16.838;2023-05-02T07:33:16;15.80;80.50
32366;DHT22;18837;46.832;16.838;2023-05-02T07:35:42;15.80;80.70
32366;DHT22;18837;46.832;16.838;2023-05-02T07:38:08;15.90;80.90
32366;DHT22;18837;46.832;16.838;2023-05-02T07:40:34;15.90;80.50
32366;DHT22;18837;46.832;16.838;2023-05-02T07:43:00;15.90;81.10
32366;DHT22;18837;46.832;16.838;2023-05-02T07:45:26;15.90;81.30
32366;DHT22;18837;46.832;16.838;2023-05-02T07:47:52;15.90;81.20
32366;DHT22;18837;46.832;16.838;2023-05-02T07:50:19;15.90;81.20
32366;DHT22;18837;46.832;16.838;2023-05-02T07:52:57;15.90;80.50
32366;DHT22;18837;46.832;16.838;2023-05-02T07:55:22;16.00;81.00
32366;DHT22;18837;46.832;16.838;2023-05-02T07:57:51;16.00;80.90
32366;DHT22;18837;46.832;16.838;2023-05-02T08:00:20;16.00;81.40
32366;DHT22;18837;46.832;16.838;2023-05-02T08:02:46;16.00;81.10
32366;DHT22;18837;46.832;16.838;2023-05-02T08:05:11;16.10;81.30
32366;DHT22;18837;46.832;16.838;2023-05-02T08:08:08;16.10;81.60
32366;DHT22;18837;46.832;16.838;2023-05-02T08:10:56;16.10;80.80
32366;DHT22;18837;46.832;16.838;2023-05-02T08:13:22;16.20;81.20
32366;DHT22;18837;46.832;16.838;2023-05-02T08:15:47;16.20;81.80
32366;DHT22;18837;46.832;16.838;2023-05-02T08:18:13;16.20;82.50
32366;DHT22;18837;46.832;16.838;2023-05-02T08:20:39;16.20;81.60
32366;DHT22;18837;46.832;16.838;2023-05-02T08:23:05;16.20;81.70
32366;DHT22;18837;46.832;16.838;2023-05-02T08:25:30;16.20;81.30
32366;DHT22;18837;46.832;16.838;2023-05-02T08:27:59;16.20;81.20
32366;DHT22;18837;46.832;16.838;2023-05-02T08:30:25;16.20;80.90
32366;DHT22;18837;46.832;16.838;2023-05-02T08:32:51;16.30;80.90
32366;DHT22;18837;46.832;16.838;2023-05-02T08:35:17;16.30;79.50
32366;DHT22;18837;46.832;16.838;2023-05-02T08:37:42;16.30;78.60
32366;DHT22;18837;46.832;16.838;2023-05-02T08:40:11;16.30;77.90
32366;DHT22;18837;46.832;16.838;2023-05-02T08:43:01;16.30;78.00
32366;DHT22;18837;46.832;16.838;2023-05-02T08:45:42;16.30;77.30
32366;DHT22;18837;46.832;16.838;2023-05-02T08:48:10;16.40;78.20
32366;DHT22;18837;46.832;16.838;2023-05-02T08:50:40;16.40;78.00
32366;DHT22;18837;46.832;16.838;2023-05-02T08:53:11;16.40;78.00
32366;DHT22;18837;46.832;16.838;2023-05-02T08:55:38;16.40;78.10
32366;DHT22;18837;46.832;16.838;2023-05-02T08:58:06;16.40;78.30
32366;DHT22;18837;46.832;16.838;2023-05-02T09:00:49;16.40;78.60
32366;DHT22;18837;46.832;16.838;2023-05-02T09:05:42;16.30;78.60
32366;DHT22;18837;46.832;16.838;2023-05-02T09:08:10;16.40;79.30
32366;DHT22;18837;46.832;16.838;2023-05-02T09:10:36;16.40;79.10
32366;DHT22;18837;46.832;16.838;2023-05-02T09:13:27;16.30;79.10
32366;DHT22;18837;46.832;16.838;2023-05-02T09:22:22;16.40;79.50
32366;DHT22;18837;46.832;16.838;2023-05-02T09:24:53;16.40;80.30
32366;DHT22;18837;46.832;16.838;2023-05-02T09:27:19;16.40;80.20
32366;DHT22;18837;46.832;16.838;2023-05-02T09:29:45;16.40;80.40
32366;DHT22;18837;46.832;16.838;2023-05-02T09:32:11;16.40;80.50
32366;DHT22;18837;46.832;16.838;2023-05-02T09:34:37;16.50;80.70
32366;DHT22;18837;46.832;16.838;2023-05-02T09:37:04;16.50;81.10
32366;DHT22;18837;46.832;16.838;2023-05-02T09:39:30;16.50;81.00
32366;DHT22;18837;46.832;16.838;2023-05-02T09:41:57;16.50;80.90
32366;DHT22;18837;46.832;16.838;2023-05-02T09:44:24;16.60;81.00
32366;DHT22;18837;46.832;16.838;2023-05-02T09:46:55;16.60;81.10
32366;DHT22;18837;46.832;16.838;2023-05-02T09:49:41;16.70;80.20
32366;DHT22;18837;46.832;16.838;2023-05-02T09:52:27;16.70;81.10
32366;DHT22;18837;46.832;16.838;2023-05-02T09:55:25;16.80;81.20
32366;DHT22;18837;46.832;16.838;2023-05-02T09:57:51;16.80;81.10
32366;DHT22;18837;46.832;16.838;2023-05-02T10:00:17;16.80;80.90
32366;DHT22;18837;46.832;16.838;2023-05-02T10:02:45;16.80;81.00
32366;DHT22;18837;46.832;16.838;2023-05-02T10:05:15;16.90;81.50
32366;DHT22;18837;46.832;16.838;2023-05-02T10:07:43;16.90;81.30
32366;DHT22;18837;46.832;16.838;2023-05-02T10:10:16;16.90;81.30
32366;DHT22;18837;46.832;16.838;2023-05-02T10:12:43;17.00;81.40
32366;DHT22;18837;46.832;16.838;2023-05-02T10:15:12;17.00;81.50
32366;DHT22;18837;46.832;16.838;2023-05-02T10:17:45;17.00;81.50
32366;DHT22;18837;46.832;16.838;2023-05-02T10:20:21;17.00;81.50
32366;DHT22;18837;46.832;16.838;2023-05-02T10:22:48;17.10;81.80
32366;DHT22;18837;46.832;16.838;2023-05-02T10:25:37;17.10;81.50
32366;DHT22;18837;46.832;16.838;2023-05-02T10:28:27;17.20;80.90
32366;DHT22;18837;46.832;16.838;2023-05-02T10:30:59;17.20;80.80
32366;DHT22;18837;46.832;16.838;2023-05-02T10:33:27;17.20;81.60
32366;DHT22;18837;46.832;16.838;2023-05-02T10:35:53;17.20;81.20
32366;DHT22;18837;46.832;16.838;2023-05-02T10:38:21;17.30;81.10
32366;DHT22;18837;46.832;16.838;2023-05-02T10:40:50;17.30;81.40
32366;DHT22;18837;46.832;16.838;2023-05-02T10:43:22;17.30;81.40
32366;DHT22;18837;46.832;16.838;2023-05-02T10:45:52;17.30;81.50
32366;DHT22;18837;46.832;16.838;2023-05-02T10:48:20;17.40;81.20
32366;DHT22;18837;46.832;16.838;2023-05-02T10:50:56;17.40;80.80
32366;DHT22;18837;46.832;16.838;2023-05-02T10:53:27;17.40;80.00
32366;DHT22;18837;46.832;16.838;2023-05-02T10:58:32;17.40;80.70
32366;DHT22;18837;46.832;16.838;2023-05-02T11:04:17;17.50;80.30
32366;DHT22;18837;46.832;16.838;2023-05-02T11:11:54;17.50;80.40
32366;DHT22;18837;46.832;16.838;2023-05-02T11:22:38;17.50;80.30
32366;DHT22;18837;46.832;16.838;2023-05-02T11:25:04;17.50;80.80
32366;DHT22;18837;46.832;16.838;2023-05-02T11:30:06;17.50;81.00
32366;DHT22;18837;46.832;16.838;2023-05-02T11:35:49;17.50;80.50
32366;DHT22;18837;46.832;16.838;2023-05-02T11:38:35;17.50;81.10
32366;DHT22;18837;46.832;16.838;2023-05-02T11:41:02;17.50;81.20
32366;DHT22;18837;46.832;16.838;2023-05-02T11:43:29;17.50;80.70
32366;DHT22;18837;46.832;16.838;2023-05-02T11:45:55;17.50;81.10
32366;DHT22;18837;46.832;16.838;2023-05-02T11:48:24;17.60;81.00
32366;DHT22;18837;46.832;16.838;2023-05-02T11:51:01;17.50;80.70
32366;DHT22;18837;46.832;16.838;2023-05-02T11:53:41;17.50;79.90
32366;DHT22;18837;46.832;16.838;2023-05-02T11:56:07;17.60;81.00
32366;DHT22;18837;46.832;16.838;2023-05-02T11:58:33;17.60;81.10
32366;DHT22;18837;46.832;16.838;2023-05-02T12:01:19;17.60;81.20
32366;DHT22;18837;46.832;16.838;2023-05-02T12:03:46;17.60;81.70
32366;DHT22;18837;46.832;16.838;2023-05-02T12:06:15;17.60;80.90
32366;DHT22;18837;46.832;16.838;2023-05-02T12:08:44;17.60;81.30
32366;DHT22;18837;46.832;16.838;2023-05-02T12:11:45;17.60;80.80
32366;DHT22;18837;46.832;16.838;2023-05-02T12:14:37;17.60;79.70
32366;DHT22;18837;46.832;16.838;2023-05-02T12:17:04;17.60;80.60
32366;DHT22;18837;46.832;16.838;2023-05-02T12:19:31;17.60;80.70
32366;DHT22;18837;46.832;16.838;2023-05-02T12:21:57;17.60;80.40
32366;DHT22;18837;46.832;16.838;2023-05-02T12:24:23;17.60;80.60
32366;DHT22;18837;46.832;16.838;2023-05-02T12:26:48;17.60;81.00
32366;DHT22;18837;46.832;16.838;2023-05-02T12:29:37;17.60;81.10
32366;DHT22;18837;46.832;16.838;2023-05-02T12:32:03;17.60;80.90
32366;DHT22;18837;46.832;16.838;2023-05-02T12:34:33;17.60;80.70
32366;DHT22;18837;46.832;16.838;2023-05-02T12:36:59;17.60;81.10
32366;DHT22;18837;46.832;16.838;2023-05-02T12:39:35;17.60;80.80
32366;DHT22;18837;46.832;16.838;2023-05-02T12:42:11;17.60;81.00
32366;DHT22;18837;46.832;16.838;2023-05-02T12:44:50;17.60;80.90
32366;DHT22;18837;46.832;16.838;2023-05-02T12:47:44;17.60;81.20
32366;DHT22;18837;46.832;16.838;2023-05-02T12:50:13;17.60;80.60
32366;DHT22;18837;46.832;16.838;2023-05-02T12:52:49;17.60;81.40
32366;DHT22;18837;46.832;16.838;2023-05-02T12:55:20;17.70;80.70
32366;DHT22;18837;46.832;16.838;2023-05-02T12:57:46;17.70;80.90
32366;DHT22;18837;46.832;16.838;2023-05-02T13:00:15;17.70;81.00
32366;DHT22;18837;46.832;16.838;2023-05-02T13:02:50;17.70;80.60
32366;DHT22;18837;46.832;16.838;2023-05-02T13:05:18;17.70;80.20
32366;DHT22;18837;46.832;16.838;2023-05-02T13:07:45;17.60;80.70
32366;DHT22;18837;46.832;16.838;2023-05-02T13:10:11;17.60;80.60
32366;DHT22;18837;46.832;16.838;2023-05-02T13:12:38;17.60;81.00
32366;DHT22;18837;46.832;16.838;2023-05-02T13:15:05;17.60;80.90
32366;DHT22;18837;46.832;16.838;2023-05-02T13:17:40;17.60;80.50
32366;DHT22;18837;46.832;16.838;2023-05-02T13:20:30;17.60;81.20
32366;DHT22;18837;46.832;16.838;2023-05-02T13:23:12;17.60;80.00
32366;DHT22;18837;46.832;16.838;2023-05-02T13:25:37;17.60;80.90
32366;DHT22;18837;46.832;16.838;2023-05-02T13:28:03;17.50;80.50
32366;DHT22;18837;46.832;16.838;2023-05-02T13:30:29;17.60;80.50
32366;DHT22;18837;46.832;16.838;2023-05-02T13:32:55;17.50;80.60
32366;DHT22;18837;46.832;16.838;2023-05-02T13:35:23;17.50;80.50
32366;DHT22;18837;46.832;16.838;2023-05-02T13:37:58;17.50;80.50
32366;DHT22;18837;46.832;16.838;2023-05-02T13:40:24;17.50;81.10
32366;DHT22;18837;46.832;16.838;2023-05-02T13:42:49;17.50;80.70
32366;DHT22;18837;46.832;16.838;2023-05-02T13:45:15;17.50;80.80
32366;DHT22;18837;46.832;16.838;2023-05-02T13:47:41;17.50;80.70
32366;DHT22;18837;46.832;16.838;2023-05-02T13:50:07;17.50;80.50
32366;DHT22;18837;46.832;16.838;2023-05-02T13:52:58;17.50;80.50
32366;DHT22;18837;46.832;16.838;2023-05-02T13:58:41;17.50;80.00
32366;DHT22;18837;46.832;16.838;2023-05-02T14:01:06;17.50;80.80
32366;DHT22;18837;46.832;16.838;2023-05-02T14:03:32;17.50;80.90
32366;DHT22;18837;46.832;16.838;2023-05-02T14:05:58;17.50;80.90
32366;DHT22;18837;46.832;16.838;2023-05-02T14:08:30;17.40;80.50
32366;DHT22;18837;46.832;16.838;2023-05-02T14:14:33;17.40;79.70
32366;DHT22;18837;46.832;16.838;2023-05-02T16:17:26;17.00;81.90
32366;DHT22;18837;46.832;16.838;2023-05-02T16:22:32;17.00;82.00
32366;DHT22;18837;46.832;16.838;2023-05-02T16:53:37;16.80;82.10
32366;DHT22;18837;46.832;16.838;2023-05-02T16:56:03;16.80;82.90
32366;DHT22;18837;46.832;16.838;2023-05-02T16:58:29;16.70;82.90
32366;DHT22;18837;46.832;16.838;2023-05-02T17:00:55;16.70;82.30
32366;DHT22;18837;46.832;16.838;2023-05-02T17:03:21;16.70;82.80
32366;DHT22;18837;46.832;16.838;2023-05-02T17:05:59;16.70;82.90
32366;DHT22;18837;46.832;16.838;2023-05-02T17:08:26;16.70;83.00
32366;DHT22;18837;46.832;16.838;2023-05-02T17:10:52;16.70;82.90
32366;DHT22;18837;46.832;16.838;2023-05-02T17:13:17;16.70;82.90
32366;DHT22;18837;46.832;16.838;2023-05-02T17:15:43;16.70;82.90
32366;DHT22;18837;46.832;16.838;2023-05-02T17:18:10;16.60;82.90
32366;DHT22;18837;46.832;16.838;2023-05-02T17:20:37;16.50;82.60
32366;DHT22;18837;46.832;16.838;2023-05-02T17:23:28;16.60;82.90
32366;DHT22;18837;46.832;16.838;2023-05-02T17:26:00;16.60;82.50
32366;DHT22;18837;46.832;16.838;2023-05-02T17:28:26;16.60;83.00
32366;DHT22;18837;46.832;16.838;2023-05-02T17:30:52;16.60;82.60
32366;DHT22;18837;46.832;16.838;2023-05-02T17:33:19;16.50;82.60
32366;DHT22;18837;46.832;16.838;2023-05-02T17:35:46;16.60;82.90
32366;DHT22;18837;46.832;16.838;2023-05-02T17:38:12;16.50;83.00
32366;DHT22;18837;46.832;16.838;2023-05-02T17:40:44;16.50;83.00
32366;DHT22;18837;46.832;16.838;2023-05-02T17:43:10;16.50;83.00
32366;DHT22;18837;46.832;16.838;2023-05-02T17:45:36;16.50;82.90
32366;DHT22;18837;46.832;16.838;2023-05-02T17:48:04;16.50;82.90
32366;DHT22;18837;46.832;16.838;2023-05-02T17:50:34;16.50;82.50
32366;DHT22;18837;46.832;16.838;2023-05-02T17:53:01;16.50;82.90
32366;DHT22;18837;46.832;16.838;2023-05-02T17:55:55;16.40;82.80
32366;DHT22;18837;46.832;16.838;2023-05-02T17:58:39;16.50;82.20
32366;DHT22;18837;46.832;16.838;2023-05-02T18:01:09;16.50;82.90
32366;DHT22;18837;46.832;16.838;2023-05-02T18:03:36;16.50;82.90
32366;DHT22;18837;46.832;16.838;2023-05-02T18:06:02;16.40;82.80
32366;DHT22;18837;46.832;16.838;2023-05-02T18:08:28;16.40;82.70
32366;DHT22;18837;46.832;16.838;2023-05-02T18:10:57;16.40;82.70
32366;DHT22;18837;46.832;16.838;2023-05-02T18:13:35;16.40;82.60
32366;DHT22;18837;46.832;16.838;2023-05-02T18:16:04;16.40;82.80
32366;DHT22;18837;46.832;16.838;2023-05-02T18:18:30;16.40;82.40
32366;DHT22;18837;46.832;16.838;2023-05-02T18:20:57;16.40;83.10
32366;DHT22;18837;46.832;16.838;2023-05-02T18:23:23;16.40;82.90
32366;DHT22;18837;46.832;16.838;2023-05-02T18:25:49;16.40;82.50
32366;DHT22;18837;46.832;16.838;2023-05-02T18:28:15;16.30;82.60
32366;DHT22;18837;46.832;16.838;2023-05-02T18:31:03;16.40;83.00
32366;DHT22;18837;46.832;16.838;2023-05-02T18:33:41;16.40;82.40
32366;DHT22;18837;46.832;16.838;2023-05-02T18:36:07;16.30;82.80
32366;DHT22;18837;46.832;16.838;2023-05-02T18:38:33;16.30;83.00
32366;DHT22;18837;46.832;16.838;2023-05-02T18:41:01;16.30;82.90
32366;DHT22;18837;46.832;16.838;2023-05-02T18:43:27;16.30;82.60
32366;DHT22;18837;46.832;16.838;2023-05-02T18:45:52;16.30;83.10
32366;DHT22;18837;46.832;16.838;2023-05-02T18:48:23;16.30;82.90
32366;DHT22;18837;46.832;16.838;2023-05-02T18:50:49;16.30;83.10
32366;DHT22;18837;46.832;16.838;2023-05-02T18:53:16;16.30;83.20
32366;DHT22;18837;46.832;16.838;2023-05-02T18:55:43;16.50;82.90
32366;DHT22;18837;46.832;16.838;2023-05-02T18:58:09;16.30;82.90
32366;DHT22;18837;46.832;16.838;2023-05-02T19:00:35;16.30;83.20
32366;DHT22;18837;46.832;16.838;2023-05-02T19:03:01;16.30;83.40
32366;DHT22;18837;46.832;16.838;2023-05-02T19:05:40;16.20;83.10
32366;DHT22;18837;46.832;16.838;2023-05-02T19:08:16;16.20;83.30
32366;DHT22;18837;46.832;16.838;2023-05-02T19:10:42;16.20;83.00